Time;durP1;ratioP1;P1;durP2;ratioP2;P2;SDS_P1;SDS_P2;PMS_P1;PMS_P2;Temp;Humidity;BMP_temperature;BMP_pressure;BME280_temperature;BME280_humidity;BME280_pressure;Samples;Min_cycle;Max_cycle;Signal;HPM_P1;HPM_P2
2023/02/26 00:00:45;;;;;;;10.13;4.63;;;4.90;97.40;;;;;;5027965;28;20195;-64
2023/02/26 00:03:11;;;;;;;13.93;3.00;;;4.90;97.30;;;;;;5028613;28;20051;-66
2023/02/26 00:05:36;;;;;;;9.67;3.30;;;5.00;97.30;;;;;;5028664;28;20112;-66
2023/02/26 00:08:04;;;;;;;7.47;2.97;;;5.10;97.60;;;;;;5032882;28;20389;-65
2023/02/26 00:10:30;;;;;;;7.38;3.05;;;5.00;97.20;;;;;;5040831;28;20166;-67
2023/02/26 00:12:56;;;;;;;7.50;3.33;;;5.00;97.70;;;;;;5041992;28;20027;-66
2023/02/26 00:15:22;;;;;;;9.73;3.38;;;5.00;97.50;;;;;;5032544;28;20026;-67
2023/02/26 00:17:58;;;;;;;7.80;3.42;;;5.00;98.10;;;;;;5032892;28;20393;-68
2023/02/26 00:20:25;;;;;;;5.50;2.92;;;5.00;97.90;;;;;;5032487;28;20428;-66
2023/02/26 00:22:51;;;;;;;7.70;2.80;;;5.00;97.90;;;;;;5032751;28;20112;-66
2023/02/26 00:25:16;;;;;;;7.25;2.80;;;5.00;97.60;;;;;;5031959;28;20164;-67
2023/02/26 00:27:42;;;;;;;12.30;4.57;;;5.10;97.60;;;;;;5032586;28;20122;-66
2023/02/26 00:30:10;;;;;;;6.20;2.80;;;5.10;97.80;;;;;;5030507;28;20041;-67
2023/02/26 00:32:38;;;;;;;7.43;3.05;;;5.00;97.80;;;;;;5029225;28;20037;-66
2023/02/26 00:35:08;;;;;;;11.30;2.92;;;5.10;97.80;;;;;;5024072;28;20045;-66
2023/02/26 00:37:54;;;;;;;5.95;3.08;;;5.00;97.90;;;;;;5012831;28;20026;-67
2023/02/26 00:40:22;;;;;;;13.35;3.20;;;5.00;97.70;;;;;;5028136;28;20052;-67
2023/02/26 00:42:48;;;;;;;6.88;3.15;;;4.90;98.00;;;;;;5032196;28;20567;-66
2023/02/26 00:45:14;;;;;;;6.90;2.42;;;4.90;97.50;;;;;;5026109;28;20588;-66
2023/02/26 00:47:58;;;;;;;7.35;3.45;;;4.90;97.60;;;;;;5012796;28;20038;-67
2023/02/26 00:50:25;;;;;;;11.15;2.80;;;4.90;97.90;;;;;;5029719;28;20464;-64
2023/02/26 00:53:16;;;;;;;8.63;3.72;;;4.80;97.50;;;;;;5031935;28;20014;-66
2023/02/26 00:55:41;;;;;;;5.20;3.03;;;4.90;97.60;;;;;;5031981;28;20056;-67
2023/02/26 00:58:07;;;;;;;18.73;3.63;;;4.90;97.30;;;;;;5031985;28;20021;-65
2023/02/26 01:00:33;;;;;;;10.40;3.47;;;4.80;97.40;;;;;;5031962;28;20041;-64
2023/02/26 01:02:59;;;;;;;9.45;4.20;;;4.70;98.00;;;;;;5032054;28;20029;-67
2023/02/26 01:05:25;;;;;;;9.43;3.47;;;4.70;97.60;;;;;;5031683;28;20048;-63
2023/02/26 01:07:53;;;;;;;10.65;2.95;;;4.70;97.70;;;;;;5031896;28;20029;-65
2023/02/26 01:10:20;;;;;;;14.20;3.50;;;4.70;97.60;;;;;;5031747;28;20033;-66
2023/02/26 01:12:45;;;;;;;9.43;3.50;;;4.70;97.40;;;;;;5031257;28;20026;-66
2023/02/26 01:15:12;;;;;;;9.85;3.80;;;4.60;97.50;;;;;;5031601;28;20175;-66
2023/02/26 01:17:53;;;;;;;;;;;4.50;97.80;;;;;;5046884;28;20576;-67
2023/02/26 01:20:22;;;;;;;8.40;2.90;;;4.50;97.90;;;;;;5035258;28;19921;-63
2023/02/26 01:23:00;;;;;;;9.80;2.72;;;4.60;97.80;;;;;;5031240;28;20493;-66
2023/02/26 01:25:49;;;;;;;11.70;2.83;;;4.50;97.70;;;;;;5031766;28;20037;-67
2023/02/26 01:28:15;;;;;;;8.68;2.70;;;4.60;97.60;;;;;;5031531;28;20108;-67
2023/02/26 01:30:41;;;;;;;10.23;3.25;;;4.60;97.80;;;;;;5031331;28;20104;-67
2023/02/26 01:33:35;;;;;;;6.18;3.20;;;4.50;97.80;;;;;;5030306;28;20542;-68
2023/02/26 01:36:13;;;;;;;7.80;2.92;;;4.40;97.50;;;;;;5030108;28;20073;-66
2023/02/26 01:39:13;;;;;;;14.25;3.35;;;4.30;97.80;;;;;;5031245;28;20064;-67
2023/02/26 01:41:50;;;;;;;6.20;3.03;;;4.30;98.40;;;;;;5011373;28;20045;-66
2023/02/26 01:44:30;;;;;;;10.63;3.00;;;4.20;98.30;;;;;;5016278;28;20389;-66
2023/02/26 01:47:20;;;;;;;8.20;3.35;;;4.20;98.60;;;;;;5031285;28;20064;-65
2023/02/26 01:49:46;;;;;;;11.30;3.75;;;4.10;98.00;;;;;;5033349;28;20030;-66
2023/02/26 01:52:33;;;;;;;9.52;3.53;;;4.10;98.40;;;;;;5031053;28;20034;-67
2023/02/26 01:54:59;;;;;;;12.27;3.97;;;3.90;98.20;;;;;;5021038;28;20144;-64
2023/02/26 01:57:25;;;;;;;6.43;2.97;;;3.90;98.40;;;;;;5030731;28;20108;-66
2023/02/26 01:59:51;;;;;;;8.25;3.47;;;3.80;98.70;;;;;;5029344;28;20294;-65
2023/02/26 02:02:19;;;;;;;;;;;3.70;98.90;;;;;;5031343;28;20116;-65
2023/02/26 02:04:45;;;;;;;;;;;3.70;99.20;;;;;;5031182;28;19913;-66
2023/02/26 02:07:11;;;;;;;10.85;3.42;;;3.50;99.20;;;;;;5029562;28;19968;-67
2023/02/26 02:09:37;;;;;;;12.30;4.28;;;3.50;99.10;;;;;;5030785;28;20065;-64
2023/02/26 02:12:24;;;;;;;11.43;3.75;;;3.40;99.50;;;;;;5030553;28;20394;-66
2023/02/26 02:15:12;;;;;;;8.98;4.20;;;3.50;99.50;;;;;;5030418;28;20033;-67
2023/02/26 02:17:57;;;;;;;;;;;3.30;99.60;;;;;;5031379;28;20029;-67
2023/02/26 02:20:44;;;;;;;7.65;2.85;;;3.30;99.50;;;;;;5029959;28;19920;-67
2023/02/26 02:23:19;;;;;;;10.23;3.67;;;3.30;99.90;;;;;;5030567;28;20079;-67
2023/02/26 02:26:22;;;;;;;14.32;3.55;;;3.20;99.90;;;;;;5030200;28;20037;-66
2023/02/26 02:29:12;;;;;;;15.57;3.83;;;3.20;99.90;;;;;;5030293;28;20032;-66
2023/02/26 02:32:01;;;;;;;8.80;3.28;;;3.10;99.90;;;;;;5029961;28;20099;-66
2023/02/26 02:34:36;;;;;;;13.05;3.38;;;3.10;99.70;;;;;;5022058;28;20028;-68
2023/02/26 02:37:19;;;;;;;6.97;2.72;;;3.10;99.80;;;;;;5031843;28;20031;-67
2023/02/26 02:39:51;;;;;;;12.38;3.70;;;3.00;99.90;;;;;;5029697;28;20501;-64
2023/02/26 02:42:29;;;;;;;11.55;3.22;;;3.00;99.80;;;;;;5048230;28;20040;-67
2023/02/26 02:44:59;;;;;;;8.52;3.42;;;3.00;99.90;;;;;;5042680;28;20049;-63
2023/02/26 02:47:28;;;;;;;9.02;3.13;;;3.00;99.90;;;;;;5029895;28;20109;-66
2023/02/26 02:50:07;;;;;;;10.38;4.00;;;3.00;99.90;;;;;;5029879;28;20398;-67
2023/02/26 02:52:40;;;;;;;7.38;3.20;;;2.90;99.90;;;;;;5029777;28;20021;-64
2023/02/26 02:55:11;;;;;;;12.43;3.20;;;2.90;99.90;;;;;;5029958;28;20516;-65
2023/02/26 02:57:42;;;;;;;8.23;3.00;;;2.80;99.90;;;;;;5030111;28;20057;-67
2023/02/26 03:00:10;;;;;;;13.38;3.13;;;2.90;99.90;;;;;;5029967;28;20409;-65
2023/02/26 03:02:36;;;;;;;10.00;3.58;;;2.70;99.90;;;;;;5029855;28;20021;-66
2023/02/26 03:05:02;;;;;;;8.73;3.53;;;2.80;99.90;;;;;;5029668;28;20115;-65
2023/02/26 03:07:32;;;;;;;9.43;3.42;;;2.80;99.90;;;;;;5038418;28;20091;-64
2023/02/26 03:09:57;;;;;;;9.90;3.72;;;2.70;99.90;;;;;;5037658;28;20096;-67
2023/02/26 03:12:25;;;;;;;13.67;4.07;;;2.70;99.90;;;;;;5029478;28;20041;-63
2023/02/26 03:14:51;;;;;;;10.15;3.65;;;2.70;99.90;;;;;;5029013;28;20272;-63
2023/02/26 03:17:28;;;;;;;9.02;3.38;;;2.70;99.90;;;;;;5028901;28;20029;-63
2023/02/26 03:20:03;;;;;;;;;;;2.60;99.90;;;;;;5027747;28;20120;-66
2023/02/26 03:22:39;;;;;;;10.15;3.67;;;2.50;99.90;;;;;;5028344;28;19945;-65
2023/02/26 03:25:04;;;;;;;15.00;4.20;;;2.50;99.90;;;;;;5028205;28;20061;-64
2023/02/26 03:27:51;;;;;;;12.43;4.23;;;2.50;99.90;;;;;;5028666;28;20057;-67
2023/02/26 03:30:31;;;;;;;9.85;3.70;;;2.50;99.90;;;;;;5029096;28;20067;-66
2023/02/26 03:33:05;;;;;;;14.85;5.20;;;2.40;99.90;;;;;;5028777;28;20030;-67
2023/02/26 03:35:52;;;;;;;14.52;4.57;;;2.40;99.90;;;;;;5030025;28;20493;-66
2023/02/26 03:38:29;;;;;;;11.05;3.60;;;2.40;99.90;;;;;;5048858;28;20032;-67
2023/02/26 03:41:02;;;;;;;10.32;3.90;;;2.50;99.90;;;;;;5048386;28;20040;-65
2023/02/26 03:43:49;;;;;;;12.52;4.10;;;2.40;99.90;;;;;;5048034;28;20513;-67
2023/02/26 03:46:24;;;;;;;14.88;3.97;;;2.40;99.90;;;;;;5048655;28;20032;-67
2023/02/26 03:48:50;;;;;;;15.95;4.20;;;2.30;99.90;;;;;;5049318;28;20051;-66
2023/02/26 03:51:17;;;;;;;15.32;4.57;;;2.30;99.90;;;;;;5041474;28;20123;-66
2023/02/26 03:54:06;;;;;;;16.35;4.82;;;2.20;99.90;;;;;;5028774;28;20035;-67
2023/02/26 03:56:43;;;;;;;13.20;3.92;;;2.20;99.90;;;;;;5029066;28;20033;-65
2023/02/26 03:59:10;;;;;;;15.82;4.57;;;2.30;99.90;;;;;;5029226;28;20528;-67
2023/02/26 04:01:43;;;;;;;14.80;4.28;;;2.30;99.90;;;;;;5028853;28;20129;-67
2023/02/26 04:04:18;;;;;;;16.25;4.40;;;2.20;99.90;;;;;;5029127;28;20482;-64
2023/02/26 04:06:46;;;;;;;13.18;4.57;;;2.20;99.90;;;;;;5029021;28;20105;-67
2023/02/26 04:09:11;;;;;;;16.60;5.65;;;2.20;99.90;;;;;;5027715;28;20043;-68
2023/02/26 04:11:38;;;;;;;8.55;4.15;;;2.10;99.90;;;;;;5029081;28;20025;-65
2023/02/26 04:14:04;;;;;;;15.07;4.88;;;2.10;99.90;;;;;;5028545;28;20041;-67
2023/02/26 04:16:29;;;;;;;9.80;4.47;;;2.10;99.90;;;;;;5028739;28;20038;-67
2023/02/26 04:18:55;;;;;;;11.73;4.57;;;2.10;99.90;;;;;;5028526;28;20047;-63
2023/02/26 04:21:22;;;;;;;16.77;5.07;;;2.10;99.90;;;;;;5028669;28;20665;-64
2023/02/26 04:23:48;;;;;;;15.88;5.40;;;2.00;99.90;;;;;;5028654;28;20029;-64
2023/02/26 04:26:13;;;;;;;18.80;6.05;;;2.00;99.90;;;;;;5029016;28;20513;-68
2023/02/26 04:28:40;;;;;;;16.73;5.32;;;2.00;99.90;;;;;;5029029;28;20508;-63
2023/02/26 04:31:07;;;;;;;11.60;4.65;;;1.90;99.90;;;;;;5028558;28;20037;-63
2023/02/26 04:33:32;;;;;;;10.95;4.88;;;2.00;99.90;;;;;;5028439;28;20025;-68
2023/02/26 04:35:59;;;;;;;8.82;5.03;;;2.00;99.90;;;;;;5038284;28;20039;-68
2023/02/26 04:38:25;;;;;;;21.77;5.03;;;2.00;99.90;;;;;;5048427;28;20032;-68
2023/02/26 04:40:51;;;;;;;11.48;4.60;;;2.00;99.90;;;;;;5048745;28;20648;-67
2023/02/26 04:43:16;;;;;;;16.85;5.53;;;1.90;99.90;;;;;;5048452;28;20032;-66
2023/02/26 04:45:45;;;;;;;13.80;5.55;;;1.90;99.90;;;;;;5048641;28;20485;-69
2023/02/26 04:48:11;;;;;;;10.88;5.15;;;1.80;99.90;;;;;;5048438;28;20071;-68
2023/02/26 04:50:37;;;;;;;10.57;4.60;;;1.90;99.90;;;;;;5046211;28;20056;-68
2023/02/26 04:53:02;;;;;;;16.33;5.20;;;1.90;99.90;;;;;;5028251;28;20120;-67
2023/02/26 04:55:28;;;;;;;12.70;4.87;;;1.80;99.90;;;;;;5030256;28;20068;-63
2023/02/26 04:57:53;;;;;;;17.05;5.82;;;1.80;99.90;;;;;;5030804;28;20664;-67
2023/02/26 05:00:19;;;;;;;13.97;5.40;;;1.80;99.90;;;;;;5031934;28;20115;-67
2023/02/26 05:02:45;;;;;;;9.77;4.60;;;1.90;99.90;;;;;;5032251;28;20022;-68
2023/02/26 05:05:10;;;;;;;13.88;5.38;;;1.90;99.90;;;;;;5032077;28;20563;-63
2023/02/26 05:07:36;;;;;;;13.85;5.32;;;1.90;99.90;;;;;;5031878;28;20037;-68
2023/02/26 05:10:03;;;;;;;10.88;4.70;;;1.90;99.90;;;;;;5030638;28;20029;-69
2023/02/26 05:12:29;;;;;;;15.52;5.18;;;1.80;99.90;;;;;;5032072;28;20040;-66
2023/02/26 05:14:54;;;;;;;10.87;4.77;;;1.80;99.90;;;;;;5031526;28;20030;-68
2023/02/26 05:17:20;;;;;;;9.70;5.10;;;1.80;99.90;;;;;;5030358;28;20029;-66
2023/02/26 05:19:46;;;;;;;10.13;4.93;;;1.70;99.90;;;;;;5031856;28;20504;-68
2023/02/26 05:22:11;;;;;;;10.03;4.70;;;1.80;99.90;;;;;;5031996;28;20064;-63
2023/02/26 05:24:37;;;;;;;15.47;4.63;;;1.70;99.90;;;;;;5031296;28;20083;-63
2023/02/26 05:27:02;;;;;;;9.10;5.13;;;1.80;99.90;;;;;;5031812;28;20029;-65
2023/02/26 05:29:28;;;;;;;11.13;5.05;;;1.70;99.90;;;;;;5031599;28;20052;-64
2023/02/26 05:31:53;;;;;;;10.57;4.93;;;1.70;99.90;;;;;;5030871;28;20041;-63
2023/02/26 05:34:19;;;;;;;14.37;5.90;;;1.70;99.90;;;;;;5030149;28;20675;-63
2023/02/26 05:36:45;;;;;;;13.43;5.73;;;1.70;99.90;;;;;;5042989;28;20031;-63
2023/02/26 05:39:10;;;;;;;12.37;5.50;;;1.70;99.90;;;;;;5031239;28;20834;-67
2023/02/26 05:41:36;;;;;;;14.10;5.53;;;1.70;99.90;;;;;;5031302;28;20091;-68
2023/02/26 05:44:02;;;;;;;19.73;6.60;;;1.60;99.90;;;;;;5041980;28;20037;-67
2023/02/26 05:46:27;;;;;;;12.30;5.87;;;1.70;99.90;;;;;;5051091;28;20029;-66
2023/02/26 05:48:53;;;;;;;12.70;6.15;;;1.70;99.90;;;;;;5050926;28;20763;-64
2023/02/26 05:51:19;;;;;;;18.53;7.37;;;1.60;99.90;;;;;;5043002;28;20444;-68
2023/02/26 05:53:45;;;;;;;12.80;6.53;;;1.50;99.90;;;;;;5031462;28;20033;-65
2023/02/26 05:56:10;;;;;;;11.20;6.15;;;1.50;99.90;;;;;;5030904;28;20025;-68
2023/02/26 05:58:36;;;;;;;12.10;6.95;;;1.50;99.90;;;;;;5028284;28;20029;-68
2023/02/26 06:01:02;;;;;;;12.73;5.10;;;1.60;99.90;;;;;;5027654;28;20497;-66
2023/02/26 06:03:28;;;;;;;9.30;4.60;;;1.60;99.90;;;;;;5029173;28;20033;-69
2023/02/26 06:05:54;;;;;;;18.30;6.30;;;1.50;99.90;;;;;;5028575;28;20464;-68
2023/02/26 06:08:20;;;;;;;12.05;5.18;;;1.50;99.90;;;;;;5027996;28;20017;-69
2023/02/26 06:10:45;;;;;;;10.55;5.13;;;1.50;99.90;;;;;;5029049;28;20049;-67
2023/02/26 06:13:11;;;;;;;10.87;5.53;;;1.50;99.90;;;;;;5029379;28;20032;-68
2023/02/26 06:15:36;;;;;;;14.07;5.50;;;1.50;99.90;;;;;;5026169;28;20280;-67
2023/02/26 06:18:02;;;;;;;9.43;4.33;;;1.40;99.90;;;;;;5028475;28;20021;-67
2023/02/26 06:20:28;;;;;;;10.93;4.47;;;1.50;99.90;;;;;;5028580;28;20302;-67
2023/02/26 06:22:53;;;;;;;12.60;4.70;;;1.40;99.90;;;;;;5028275;28;20029;-67
2023/02/26 06:25:19;;;;;;;10.33;5.23;;;1.40;99.90;;;;;;5028564;28;20033;-64
2023/02/26 06:27:45;;;;;;;7.82;4.93;;;1.40;99.90;;;;;;5028006;28;20037;-63
2023/02/26 06:30:11;;;;;;;15.43;5.17;;;1.40;99.90;;;;;;5027333;28;20069;-67
2023/02/26 06:32:36;;;;;;;9.65;4.05;;;1.30;99.90;;;;;;5028803;28;20461;-65
2023/02/26 06:35:03;;;;;;;9.57;4.70;;;1.30;99.90;;;;;;5029442;28;20037;-65
2023/02/26 06:37:29;;;;;;;7.53;3.92;;;1.30;99.90;;;;;;5027903;28;20025;-63
2023/02/26 06:39:54;;;;;;;12.90;4.90;;;1.30;99.90;;;;;;5028152;28;20371;-63
2023/02/26 06:42:20;;;;;;;7.53;4.32;;;1.30;99.90;;;;;;5029385;28;20033;-62
2023/02/26 06:44:46;;;;;;;9.07;4.30;;;1.30;99.90;;;;;;5028494;28;20107;-64
2023/02/26 06:47:11;;;;;;;7.93;3.63;;;1.30;99.90;;;;;;5027393;28;20367;-67
2023/02/26 06:49:37;;;;;;;9.60;3.63;;;1.30;99.90;;;;;;5023929;28;20255;-68
2023/02/26 06:52:02;;;;;;;9.03;3.90;;;1.30;99.90;;;;;;5028691;28;20460;-69
2023/02/26 06:54:28;;;;;;;7.83;4.50;;;1.30;99.90;;;;;;5028121;28;20021;-67
2023/02/26 06:56:56;;;;;;;10.73;3.60;;;1.30;99.90;;;;;;5029007;28;20037;-68
2023/02/26 06:59:22;;;;;;;8.07;3.88;;;1.30;99.90;;;;;;5027556;28;20045;-66
2023/02/26 07:01:48;;;;;;;11.18;3.97;;;1.30;99.90;;;;;;5028703;28;20030;-67
2023/02/26 07:04:13;;;;;;;6.60;3.80;;;1.30;99.90;;;;;;5028454;28;20079;-67
2023/02/26 07:06:39;;;;;;;10.63;3.47;;;1.30;99.90;;;;;;5028195;28;20412;-67
2023/02/26 07:09:05;;;;;;;10.93;3.57;;;1.40;99.90;;;;;;5028341;28;20378;-66
2023/02/26 07:11:30;;;;;;;12.70;2.85;;;1.40;99.90;;;;;;5026702;28;20092;-64
2023/02/26 07:13:56;;;;;;;7.20;3.42;;;1.30;99.90;;;;;;5027290;28;20061;-65
2023/02/26 07:16:22;;;;;;;7.33;3.00;;;1.30;99.90;;;;;;5024681;28;20571;-64
2023/02/26 07:18:47;;;;;;;7.77;3.43;;;1.50;99.90;;;;;;5027602;28;20064;-66
2023/02/26 07:21:13;;;;;;;10.20;3.43;;;1.60;99.90;;;;;;5026730;28;20034;-65
2023/02/26 07:23:38;;;;;;;8.65;2.92;;;1.50;99.90;;;;;;5023628;28;20025;-65
2023/02/26 07:26:04;;;;;;;4.93;2.77;;;1.60;99.90;;;;;;5023945;28;20037;-65
2023/02/26 07:28:29;;;;;;;8.43;3.33;;;1.50;99.90;;;;;;5027813;28;20021;-66
2023/02/26 07:30:56;;;;;;;8.07;3.17;;;1.50;99.90;;;;;;5023661;28;20095;-64
2023/02/26 07:33:22;;;;;;;5.35;2.97;;;1.50;99.70;;;;;;5024072;28;20284;-65
2023/02/26 07:35:48;;;;;;;4.57;2.70;;;1.50;99.90;;;;;;5027004;28;20845;-66
2023/02/26 07:38:13;;;;;;;11.55;3.08;;;1.50;99.90;;;;;;5027707;28;20056;-66
2023/02/26 07:40:39;;;;;;;6.63;3.37;;;1.60;99.50;;;;;;5027488;28;20037;-65
2023/02/26 07:43:04;;;;;;;8.87;3.13;;;1.80;99.20;;;;;;5026596;28;20493;-63
2023/02/26 07:45:30;;;;;;;4.87;2.87;;;2.80;97.10;;;;;;5027036;28;20026;-63
2023/02/26 07:47:55;;;;;;;8.37;3.30;;;3.30;95.80;;;;;;5023937;28;20556;-63
2023/02/26 07:50:23;;;;;;;13.33;2.83;;;5.50;92.30;;;;;;5025919;28;20037;-63
2023/02/26 07:52:51;;;;;;;5.63;2.70;;;7.10;89.10;;;;;;5025382;28;20025;-64
2023/02/26 07:55:17;;;;;;;15.55;2.38;;;7.70;82.20;;;;;;5027880;28;20536;-67
2023/02/26 07:57:43;;;;;;;6.43;2.87;;;6.70;84.60;;;;;;5021787;28;20042;-65
2023/02/26 08:00:09;;;;;;;6.13;2.80;;;7.20;85.20;;;;;;5026964;28;20821;-65
2023/02/26 08:02:35;;;;;;;4.82;2.72;;;8.20;81.50;;;;;;5026906;28;20017;-65
2023/02/26 08:05:00;;;;;;;5.07;2.80;;;8.60;76.80;;;;;;5029254;28;20060;-64
2023/02/26 08:07:26;;;;;;;12.30;2.60;;;9.90;75.70;;;;;;5027551;28;20075;-65
2023/02/26 08:09:52;;;;;;;4.57;2.30;;;9.70;71.30;;;;;;5027181;28;20042;-65
2023/02/26 08:12:17;;;;;;;5.10;2.90;;;10.20;69.70;;;;;;5026603;28;20030;-65
2023/02/26 08:14:43;;;;;;;6.60;2.60;;;9.80;68.70;;;;;;5027122;28;20485;-65
2023/02/26 08:17:10;;;;;;;5.63;2.93;;;11.00;65.00;;;;;;5026718;28;20029;-65
2023/02/26 08:19:36;;;;;;;5.65;2.45;;;10.30;64.30;;;;;;5027148;28;20584;-64
2023/02/26 08:22:01;;;;;;;4.80;2.10;;;10.90;64.30;;;;;;5026281;28;20057;-65
2023/02/26 08:24:27;;;;;;;5.03;2.80;;;11.40;63.10;;;;;;5027697;28;20075;-64
2023/02/26 08:26:53;;;;;;;6.13;2.80;;;12.50;60.30;;;;;;5026888;28;20557;-65
2023/02/26 08:29:19;;;;;;;7.13;3.80;;;12.40;58.30;;;;;;5027400;28;20128;-65
2023/02/26 08:31:45;;;;;;;7.72;2.78;;;12.10;59.30;;;;;;5029567;28;20037;-65
2023/02/26 08:34:10;;;;;;;3.35;2.55;;;12.60;57.50;;;;;;5027517;28;20036;-67
2023/02/26 08:36:36;;;;;;;4.97;2.30;;;9.80;61.20;;;;;;5029844;28;20839;-65
2023/02/26 08:39:02;;;;;;;4.63;2.80;;;8.30;65.40;;;;;;5031390;28;20029;-65
2023/02/26 08:41:30;;;;;;;4.97;2.60;;;7.60;74.50;;;;;;5030701;28;20098;-64
2023/02/26 08:43:58;;;;;;;4.43;2.25;;;7.10;76.20;;;;;;5029926;28;20029;-63
2023/02/26 08:46:23;;;;;;;6.68;2.78;;;6.50;77.20;;;;;;5030039;28;20041;-64
2023/02/26 08:48:49;;;;;;;8.20;2.60;;;5.90;80.90;;;;;;5030322;28;20026;-65
2023/02/26 08:51:14;;;;;;;5.73;2.83;;;6.40;83.30;;;;;;5029074;28;20033;-64
2023/02/26 08:53:40;;;;;;;4.50;2.77;;;8.60;74.70;;;;;;5030383;28;20489;-64
2023/02/26 08:56:06;;;;;;;7.90;3.37;;;10.40;68.10;;;;;;5028225;28;20029;-63
2023/02/26 08:58:31;;;;;;;5.45;2.88;;;11.20;64.80;;;;;;5029543;28;20029;-63
2023/02/26 09:00:57;;;;;;;9.97;3.30;;;11.30;60.60;;;;;;5029125;28;20084;-67
2023/02/26 09:03:23;;;;;;;6.13;3.10;;;10.60;62.20;;;;;;5024956;28;20036;-67
2023/02/26 09:05:50;;;;;;;6.23;3.10;;;11.40;60.50;;;;;;5027748;28;20036;-67
2023/02/26 09:08:16;;;;;;;4.43;2.70;;;11.10;63.70;;;;;;5030158;28;20083;-67
2023/02/26 09:10:42;;;;;;;7.93;2.53;;;11.60;60.60;;;;;;5026985;28;20041;-67
2023/02/26 09:13:08;;;;;;;7.82;2.78;;;12.30;58.40;;;;;;5029941;28;20044;-67
2023/02/26 09:15:34;;;;;;;5.80;3.08;;;13.10;56.50;;;;;;5028777;28;20056;-67
2023/02/26 09:18:02;;;;;;;4.27;2.73;;;13.60;53.80;;;;;;5028302;28;20497;-67
2023/02/26 09:20:28;;;;;;;5.80;2.67;;;13.10;53.50;;;;;;5029073;28;20045;-68
2023/02/26 09:22:53;;;;;;;6.93;3.17;;;13.60;54.40;;;;;;5029169;28;20029;-66
2023/02/26 09:25:19;;;;;;;3.43;2.37;;;14.30;51.40;;;;;;5027359;28;20298;-67
2023/02/26 09:27:44;;;;;;;6.10;2.83;;;15.70;50.10;;;;;;5028633;28;20837;-68
2023/02/26 09:30:11;;;;;;;3.60;2.57;;;17.00;47.60;;;;;;5028823;28;20041;-66
2023/02/26 09:32:37;;;;;;;;;;;15.70;47.00;;;;;;5027433;28;20030;-64
2023/02/26 09:35:04;;;;;;;4.32;2.53;;;16.70;46.50;;;;;;5028458;28;19928;-64
2023/02/26 09:37:30;;;;;;;6.80;2.40;;;16.80;46.50;;;;;;5029010;28;20057;-64
2023/02/26 09:39:56;;;;;;;4.85;2.40;;;17.30;44.60;;;;;;5028721;28;20033;-65
2023/02/26 09:42:44;;;;;;;6.32;3.03;;;17.10;44.40;;;;;;5026519;28;20049;-65
2023/02/26 09:45:29;;;;;;;6.30;2.28;;;15.90;43.80;;;;;;5028142;28;20032;-64
2023/02/26 09:47:55;;;;;;;10.73;2.42;;;17.30;43.90;;;;;;5027057;28;20040;-65
2023/02/26 09:50:25;;;;;;;5.78;2.65;;;15.80;45.10;;;;;;5025907;28;20425;-67
2023/02/26 09:53:06;;;;;;;3.90;2.20;;;16.30;44.20;;;;;;5025959;28;20029;-65
2023/02/26 09:55:34;;;;;;;5.20;2.40;;;16.10;44.30;;;;;;5026112;28;20044;-67
2023/02/26 09:58:04;;;;;;;8.73;2.63;;;16.00;45.20;;;;;;5026623;28;20064;-66
2023/02/26 10:00:36;;;;;;;3.40;2.20;;;14.20;46.60;;;;;;5024835;28;20103;-68
2023/02/26 10:03:29;;;;;;;3.88;2.78;;;14.60;47.90;;;;;;5028286;28;20048;-66
2023/02/26 10:06:00;;;;;;;8.23;2.42;;;13.90;46.80;;;;;;5026756;28;20029;-67
2023/02/26 10:08:41;;;;;;;4.00;2.55;;;13.80;49.30;;;;;;5026589;28;20044;-67
2023/02/26 10:11:20;;;;;;;5.40;2.30;;;14.20;48.40;;;;;;5026335;28;20030;-66
2023/02/26 10:13:59;;;;;;;3.97;2.58;;;12.80;48.40;;;;;;5026865;28;20034;-67
2023/02/26 10:16:36;;;;;;;8.00;2.40;;;11.40;50.80;;;;;;5026983;28;20033;-67
2023/02/26 10:19:39;;;;;;;3.92;2.28;;;9.40;54.30;;;;;;5028102;28;20032;-66
2023/02/26 10:22:36;;;;;;;8.35;2.70;;;9.10;56.80;;;;;;5027698;28;20425;-68
2023/02/26 10:25:15;;;;;;;8.35;2.35;;;10.40;54.60;;;;;;5027816;28;20116;-67
2023/02/26 10:28:13;;;;;;;4.22;2.17;;;9.40;53.50;;;;;;5027723;28;20552;-66
2023/02/26 10:30:44;;;;;;;4.85;2.20;;;9.90;54.80;;;;;;5024857;28;20032;-65
2023/02/26 10:33:21;;;;;;;5.45;2.05;;;10.60;53.60;;;;;;5026341;28;20029;-64
2023/02/26 10:35:57;;;;;;;3.30;1.90;;;9.80;54.50;;;;;;5023597;28;20022;-61
2023/02/26 10:38:28;;;;;;;6.22;2.20;;;8.50;54.90;;;;;;5026026;28;20045;-64
2023/02/26 10:41:03;;;;;;;3.85;2.10;;;8.80;54.90;;;;;;5025130;28;20037;-63
2023/02/26 10:43:38;;;;;;;5.28;2.10;;;8.70;56.10;;;;;;5024097;28;20033;-66
2023/02/26 10:46:06;;;;;;;9.20;2.42;;;8.30;58.00;;;;;;5023313;28;20045;-65
2023/02/26 10:48:59;;;;;;;5.68;1.75;;;8.70;58.10;;;;;;5025062;28;20091;-67
2023/02/26 10:51:32;;;;;;;4.05;2.03;;;8.00;57.20;;;;;;5023716;28;20049;-67
2023/02/26 10:54:38;;;;;;;2.25;1.70;;;7.50;58.10;;;;;;5022954;28;20509;-66
2023/02/26 10:57:04;;;;;;;2.65;1.73;;;7.70;55.70;;;;;;5027494;28;20034;-66
2023/02/26 10:59:30;;;;;;;7.15;1.60;;;7.80;54.50;;;;;;5026646;28;20080;-63
2023/02/26 11:01:57;;;;;;;5.07;2.33;;;7.40;55.80;;;;;;5026003;28;20041;-68
2023/02/26 11:04:26;;;;;;;6.85;2.15;;;7.30;56.10;;;;;;5024785;28;20413;-69
2023/02/26 11:06:56;;;;;;;3.65;1.60;;;6.80;56.50;;;;;;5025382;28;20116;-68
2023/02/26 11:09:30;;;;;;;5.60;2.00;;;6.70;57.50;;;;;;5025487;28;20119;-71
2023/02/26 11:12:09;;;;;;;6.75;2.17;;;6.70;57.40;;;;;;5024117;28;20421;-70
2023/02/26 11:14:36;;;;;;;4.75;1.88;;;6.60;58.10;;;;;;5023944;28;20503;-69
2023/02/26 11:17:03;;;;;;;;;;;6.80;59.10;;;;;;5024000;28;20056;-67
2023/02/26 11:19:38;;;;;;;6.13;2.28;;;6.60;57.60;;;;;;5026299;28;19920;-70
2023/02/26 11:22:08;;;;;;;3.17;1.85;;;6.80;57.70;;;;;;5026705;28;20037;-67
2023/02/26 11:24:45;;;;;;;3.28;2.13;;;6.90;58.60;;;;;;5025422;28;20084;-66
2023/02/26 11:27:15;;;;;;;3.25;2.00;;;6.70;58.70;;;;;;5025578;28;20038;-69
2023/02/26 11:29:45;;;;;;;4.40;2.00;;;6.70;58.20;;;;;;5025049;28;20057;-70
2023/02/26 11:32:20;;;;;;;5.47;1.95;;;6.70;59.00;;;;;;5025276;28;20114;-72
2023/02/26 11:34:47;;;;;;;2.97;1.90;;;6.90;59.00;;;;;;5026093;28;20125;-72
2023/02/26 11:37:22;;;;;;;5.70;2.38;;;7.00;60.40;;;;;;5024049;28;20029;-73
2023/02/26 11:39:57;;;;;;;3.90;2.40;;;6.70;60.10;;;;;;5022355;28;20029;-68
2023/02/26 11:42:24;;;;;;;7.20;2.53;;;6.60;59.40;;;;;;5025557;28;20029;-66
2023/02/26 11:44:51;;;;;;;3.20;2.28;;;6.80;59.10;;;;;;5025883;28;20041;-67
2023/02/26 11:47:24;;;;;;;4.05;2.10;;;7.00;59.60;;;;;;5022444;28;20051;-71
2023/02/26 11:49:54;;;;;;;3.10;2.30;;;6.90;59.50;;;;;;5025797;28;20087;-72
2023/02/26 11:52:39;;;;;;;5.40;2.20;;;6.80;58.90;;;;;;5026376;28;20029;-73
2023/02/26 11:55:27;;;;;;;6.90;1.75;;;6.70;58.40;;;;;;5024519;28;20413;-70
2023/02/26 11:57:54;;;;;;;3.97;1.80;;;6.80;59.30;;;;;;5026265;28;20026;-71
2023/02/26 12:00:24;;;;;;;;;;;6.70;59.10;;;;;;5026249;28;20060;-71
2023/02/26 12:02:50;;;;;;;4.65;1.90;;;6.60;58.20;;;;;;5025954;28;19913;-70
2023/02/26 12:05:17;;;;;;;4.45;1.90;;;6.50;58.30;;;;;;5025120;28;20025;-70
2023/02/26 12:07:45;;;;;;;4.35;1.90;;;6.70;58.20;;;;;;5025707;28;20113;-71
2023/02/26 12:10:23;;;;;;;5.28;2.20;;;6.60;58.00;;;;;;5025802;28;20029;-67
2023/02/26 12:13:00;;;;;;;6.05;1.65;;;6.50;57.70;;;;;;5025456;28;20037;-70
2023/02/26 12:15:35;;;;;;;2.75;1.80;;;6.40;58.30;;;;;;5024781;28;20389;-70
2023/02/26 12:18:29;;;;;;;3.30;2.08;;;6.50;58.20;;;;;;5025685;28;20112;-71
2023/02/26 12:21:16;;;;;;;8.85;2.38;;;6.50;59.40;;;;;;5024537;28;20108;-70
2023/02/26 12:23:56;;;;;;;3.20;1.70;;;6.40;58.00;;;;;;5023918;28;20072;-72
2023/02/26 12:26:34;;;;;;;3.65;1.73;;;6.40;58.80;;;;;;5025097;28;20033;-76
2023/02/26 12:29:44;;;;;;;4.47;2.13;;;6.30;58.70;;;;;;5024814;28;20787;-69
2023/02/26 12:32:30;;;;;;;3.90;2.08;;;6.40;57.80;;;;;;5016099;28;20077;-73
2023/02/26 12:35:41;;;;;;;2.88;1.45;;;6.50;58.30;;;;;;5023520;28;20033;-71
2023/02/26 12:38:09;;;;;;;7.13;1.98;;;6.60;58.50;;;;;;5022914;28;20021;-72
2023/02/26 12:41:02;;;;;;;6.80;1.65;;;6.50;57.30;;;;;;5025104;28;20040;-68
2023/02/26 12:43:30;;;;;;;3.15;1.80;;;6.50;58.70;;;;;;5024384;28;20045;-69
2023/02/26 12:46:13;;;;;;;10.40;1.98;;;6.40;59.50;;;;;;5025464;28;20451;-68
2023/02/26 12:48:56;;;;;;;2.30;1.45;;;6.30;58.20;;;;;;5021483;28;20048;-68
2023/02/26 12:51:40;;;;;;;5.30;1.63;;;6.00;58.20;;;;;;5023701;28;20143;-66
2023/02/26 12:54:33;;;;;;;6.88;2.45;;;6.10;58.00;;;;;;5025186;28;20052;-69
2023/02/26 12:57:27;;;;;;;2.50;1.60;;;6.10;58.60;;;;;;5001231;28;20049;-65
2023/02/26 13:00:30;;;;;;;5.38;1.50;;;6.10;58.70;;;;;;5020033;28;20116;-70
2023/02/26 13:03:04;;;;;;;6.13;1.52;;;6.20;58.30;;;;;;5024140;28;20045;-73
2023/02/26 13:05:48;;;;;;;5.32;1.80;;;6.30;58.40;;;;;;5022739;28;20533;-65
2023/02/26 13:08:23;;;;;;;9.18;1.50;;;6.20;57.50;;;;;;5024244;28;20029;-69
2023/02/26 13:11:26;;;;;;;5.88;1.30;;;6.10;57.10;;;;;;5024934;28;20025;-72
2023/02/26 13:13:55;;;;;;;3.25;1.80;;;6.00;57.70;;;;;;5023849;28;20056;-66